sensor_id;sensor_type;location;lat;lon;timestamp;P1;durP1;ratioP1;P2;durP2;ratioP2
50086;SDS011;35967;50.718;7.050;2022-10-18T00:06:11;7.07;;;3.50;;
50086;SDS011;35967;50.718;7.050;2022-10-18T00:16:14;12.37;;;3.57;;
50086;SDS011;35967;50.718;7.050;2022-10-18T00:26:21;9.90;;;4.80;;
50086;SDS011;35967;50.718;7.050;2022-10-18T00:36:27;8.07;;;3.13;;
50086;SDS011;35967;50.718;7.050;2022-10-18T00:46:33;12.77;;;5.97;;
50086;SDS011;35967;50.718;7.050;2022-10-18T00:56:38;9.03;;;5.07;;
50086;SDS011;35967;50.718;7.050;2022-10-18T01:06:44;8.10;;;5.03;;
50086;SDS011;35967;50.718;7.050;2022-10-18T01:16:57;9.40;;;5.63;;
50086;SDS011;35967;50.718;7.050;2022-10-18T01:27:24;9.90;;;5.60;;
50086;SDS011;35967;50.718;7.050;2022-10-18T01:37:36;9.63;;;6.17;;
50086;SDS011;35967;50.718;7.050;2022-10-18T01:47:40;9.40;;;6.43;;
50086;SDS011;35967;50.718;7.050;2022-10-18T01:57:49;10.27;;;5.67;;
50086;SDS011;35967;50.718;7.050;2022-10-18T02:08:03;12.80;;;5.97;;
50086;SDS011;35967;50.718;7.050;2022-10-18T02:18:26;13.00;;;8.30;;
50086;SDS011;35967;50.718;7.050;2022-10-18T02:28:33;18.40;;;9.00;;
50086;SDS011;35967;50.718;7.050;2022-10-18T02:38:38;19.47;;;8.90;;
50086;SDS011;35967;50.718;7.050;2022-10-18T02:48:43;25.47;;;11.17;;
50086;SDS011;35967;50.718;7.050;2022-10-18T02:58:49;31.63;;;14.17;;
50086;SDS011;35967;50.718;7.050;2022-10-18T03:08:52;15.03;;;9.27;;
50086;SDS011;35967;50.718;7.050;2022-10-18T03:19:02;11.17;;;7.13;;
50086;SDS011;35967;50.718;7.050;2022-10-18T03:29:15;14.80;;;9.33;;
50086;SDS011;35967;50.718;7.050;2022-10-18T03:39:23;15.23;;;10.00;;
50086;SDS011;35967;50.718;7.050;2022-10-18T03:49:33;23.80;;;11.77;;
50086;SDS011;35967;50.718;7.050;2022-10-18T03:59:43;22.27;;;12.07;;
50086;SDS011;35967;50.718;7.050;2022-10-18T04:09:58;19.10;;;10.53;;
50086;SDS011;35967;50.718;7.050;2022-10-18T04:20:06;19.33;;;10.37;;
50086;SDS011;35967;50.718;7.050;2022-10-18T04:30:13;15.13;;;9.73;;
50086;SDS011;35967;50.718;7.050;2022-10-18T04:40:25;15.77;;;9.50;;
50086;SDS011;35967;50.718;7.050;2022-10-18T04:50:28;20.57;;;10.63;;
50086;SDS011;35967;50.718;7.050;2022-10-18T05:00:49;17.43;;;8.73;;
50086;SDS011;35967;50.718;7.050;2022-10-18T05:10:56;19.93;;;9.67;;
50086;SDS011;35967;50.718;7.050;2022-10-18T05:21:06;15.17;;;7.33;;
50086;SDS011;35967;50.718;7.050;2022-10-18T05:31:17;10.30;;;5.93;;
50086;SDS011;35967;50.718;7.050;2022-10-18T05:41:31;11.30;;;5.93;;
50086;SDS011;35967;50.718;7.050;2022-10-18T05:51:39;9.47;;;5.07;;
50086;SDS011;35967;50.718;7.050;2022-10-18T06:01:44;8.40;;;5.77;;
50086;SDS011;35967;50.718;7.050;2022-10-18T06:11:54;11.10;;;5.80;;
50086;SDS011;35967;50.718;7.050;2022-10-18T06:22:02;8.30;;;5.80;;
50086;SDS011;35967;50.718;7.050;2022-10-18T06:42:10;9.33;;;5.93;;
50086;SDS011;35967;50.718;7.050;2022-10-18T06:52:15;15.87;;;8.57;;
50086;SDS011;35967;50.718;7.050;2022-10-18T07:02:36;19.67;;;9.77;;
50086;SDS011;35967;50.718;7.050;2022-10-18T07:12:52;19.67;;;10.67;;
50086;SDS011;35967;50.718;7.050;2022-10-18T07:23:20;15.60;;;9.27;;
50086;SDS011;35967;50.718;7.050;2022-10-18T07:33:27;19.37;;;9.17;;
50086;SDS011;35967;50.718;7.050;2022-10-18T07:54:17;20.47;;;10.30;;
50086;SDS011;35967;50.718;7.050;2022-10-18T08:04:20;23.00;;;11.80;;
50086;SDS011;35967;50.718;7.050;2022-10-18T08:14:25;17.20;;;10.03;;
50086;SDS011;35967;50.718;7.050;2022-10-18T08:24:30;15.70;;;9.47;;
50086;SDS011;35967;50.718;7.050;2022-10-18T08:34:34;15.50;;;7.87;;
50086;SDS011;35967;50.718;7.050;2022-10-18T08:44:41;19.03;;;9.07;;
50086;SDS011;35967;50.718;7.050;2022-10-18T08:54:57;15.97;;;8.40;;
50086;SDS011;35967;50.718;7.050;2022-10-18T09:05:15;7.43;;;5.10;;
50086;SDS011;35967;50.718;7.050;2022-10-18T09:15:38;7.73;;;5.10;;
50086;SDS011;35967;50.718;7.050;2022-10-18T09:25:54;10.83;;;5.60;;
50086;SDS011;35967;50.718;7.050;2022-10-18T09:36:09;14.13;;;7.90;;
50086;SDS011;35967;50.718;7.050;2022-10-18T09:46:17;25.40;;;11.43;;
50086;SDS011;35967;50.718;7.050;2022-10-18T09:56:25;31.07;;;9.67;;
50086;SDS011;35967;50.718;7.050;2022-10-18T10:06:31;25.93;;;10.60;;
50086;SDS011;35967;50.718;7.050;2022-10-18T10:16:48;38.57;;;14.60;;
50086;SDS011;35967;50.718;7.050;2022-10-18T10:27:00;52.10;;;17.20;;
50086;SDS011;35967;50.718;7.050;2022-10-18T10:37:19;48.87;;;17.13;;
50086;SDS011;35967;50.718;7.050;2022-10-18T10:47:26;55.83;;;19.07;;
50086;SDS011;35967;50.718;7.050;2022-10-18T10:57:33;66.17;;;22.23;;
50086;SDS011;35967;50.718;7.050;2022-10-18T11:07:39;66.03;;;23.13;;
50086;SDS011;35967;50.718;7.050;2022-10-18T11:17:45;71.10;;;27.20;;
50086;SDS011;35967;50.718;7.050;2022-10-18T11:27:56;49.10;;;21.97;;
50086;SDS011;35967;50.718;7.050;2022-10-18T11:38:24;43.20;;;21.07;;
50086;SDS011;35967;50.718;7.050;2022-10-18T11:48:39;44.03;;;21.47;;
50086;SDS011;35967;50.718;7.050;2022-10-18T11:58:57;40.13;;;19.57;;
50086;SDS011;35967;50.718;7.050;2022-10-18T12:09:16;38.27;;;18.67;;
50086;SDS011;35967;50.718;7.050;2022-10-18T12:19:26;51.40;;;24.50;;
50086;SDS011;35967;50.718;7.050;2022-10-18T12:29:33;72.33;;;29.90;;
50086;SDS011;35967;50.718;7.050;2022-10-18T12:39:50;71.50;;;28.92;;
50086;SDS011;35967;50.718;7.050;2022-10-18T12:50:22;79.73;;;32.13;;
50086;SDS011;35967;50.718;7.050;2022-10-18T13:11:12;74.73;;;35.40;;
50086;SDS011;35967;50.718;7.050;2022-10-18T13:21:33;91.60;;;37.07;;
50086;SDS011;35967;50.718;7.050;2022-10-18T13:31:46;64.63;;;32.03;;
50086;SDS011;35967;50.718;7.050;2022-10-18T13:52:23;54.37;;;27.93;;
50086;SDS011;35967;50.718;7.050;2022-10-18T14:02:46;57.80;;;28.27;;
50086;SDS011;35967;50.718;7.050;2022-10-18T14:13:15;55.73;;;28.43;;
50086;SDS011;35967;50.718;7.050;2022-10-18T14:23:24;60.10;;;31.17;;
50086;SDS011;35967;50.718;7.050;2022-10-18T14:33:31;57.77;;;31.87;;
50086;SDS011;35967;50.718;7.050;2022-10-18T14:43:38;60.13;;;31.90;;
50086;SDS011;35967;50.718;7.050;2022-10-18T14:53:41;84.93;;;39.20;;
50086;SDS011;35967;50.718;7.050;2022-10-18T15:03:45;83.80;;;38.60;;
50086;SDS011;35967;50.718;7.050;2022-10-18T15:13:50;87.23;;;37.47;;
50086;SDS011;35967;50.718;7.050;2022-10-18T15:34:22;48.53;;;24.77;;
50086;SDS011;35967;50.718;7.050;2022-10-18T15:44:30;45.30;;;24.10;;
50086;SDS011;35967;50.718;7.050;2022-10-18T15:54:35;46.53;;;21.90;;
50086;SDS011;35967;50.718;7.050;2022-10-18T16:04:39;42.07;;;22.03;;
50086;SDS011;35967;50.718;7.050;2022-10-18T16:14:43;45.43;;;19.67;;
50086;SDS011;35967;50.718;7.050;2022-10-18T16:24:47;39.80;;;21.07;;
50086;SDS011;35967;50.718;7.050;2022-10-18T16:34:50;39.90;;;21.13;;
50086;SDS011;35967;50.718;7.050;2022-10-18T16:44:58;34.80;;;20.00;;
50086;SDS011;35967;50.718;7.050;2022-10-18T16:55:07;36.23;;;19.40;;
50086;SDS011;35967;50.718;7.050;2022-10-18T17:05:23;41.43;;;21.30;;
50086;SDS011;35967;50.718;7.050;2022-10-18T17:15:26;45.43;;;21.87;;
50086;SDS011;35967;50.718;7.050;2022-10-18T17:25:37;43.07;;;21.53;;
50086;SDS011;35967;50.718;7.050;2022-10-18T17:36:01;50.47;;;25.67;;
50086;SDS011;35967;50.718;7.050;2022-10-18T17:46:07;61.50;;;34.90;;
50086;SDS011;35967;50.718;7.050;2022-10-18T17:56:12;40.37;;;19.47;;
50086;SDS011;35967;50.718;7.050;2022-10-18T18:06:18;44.93;;;19.07;;
50086;SDS011;35967;50.718;7.050;2022-10-18T18:16:23;36.70;;;18.67;;
50086;SDS011;35967;50.718;7.050;2022-10-18T18:26:31;29.57;;;15.57;;
50086;SDS011;35967;50.718;7.050;2022-10-18T18:36:34;35.57;;;17.73;;
50086;SDS011;35967;50.718;7.050;2022-10-18T18:46:39;41.47;;;16.77;;
50086;SDS011;35967;50.718;7.050;2022-10-18T18:56:42;28.20;;;14.30;;
50086;SDS011;35967;50.718;7.050;2022-10-18T19:06:47;27.80;;;14.27;;
50086;SDS011;35967;50.718;7.050;2022-10-18T19:16:50;31.20;;;13.07;;
50086;SDS011;35967;50.718;7.050;2022-10-18T19:26:57;29.33;;;11.57;;
50086;SDS011;35967;50.718;7.050;2022-10-18T19:37:02;30.93;;;13.77;;
50086;SDS011;35967;50.718;7.050;2022-10-18T19:47:08;29.13;;;13.03;;
50086;SDS011;35967;50.718;7.050;2022-10-18T19:57:13;32.70;;;11.77;;
50086;SDS011;35967;50.718;7.050;2022-10-18T20:07:17;26.83;;;11.97;;
50086;SDS011;35967;50.718;7.050;2022-10-18T20:17:20;44.53;;;15.43;;
50086;SDS011;35967;50.718;7.050;2022-10-18T20:27:25;26.97;;;11.57;;
50086;SDS011;35967;50.718;7.050;2022-10-18T20:37:28;22.90;;;11.03;;
50086;SDS011;35967;50.718;7.050;2022-10-18T20:47:32;24.10;;;10.23;;
50086;SDS011;35967;50.718;7.050;2022-10-18T20:57:36;28.70;;;11.47;;
50086;SDS011;35967;50.718;7.050;2022-10-18T21:07:41;20.53;;;9.47;;
50086;SDS011;35967;50.718;7.050;2022-10-18T21:17:47;26.80;;;11.97;;
50086;SDS011;35967;50.718;7.050;2022-10-18T21:27:53;27.57;;;11.13;;
50086;SDS011;35967;50.718;7.050;2022-10-18T21:37:56;20.27;;;9.93;;
50086;SDS011;35967;50.718;7.050;2022-10-18T21:48:00;22.43;;;11.10;;
50086;SDS011;35967;50.718;7.050;2022-10-18T21:58:04;21.10;;;11.10;;
50086;SDS011;35967;50.718;7.050;2022-10-18T22:08:08;23.40;;;10.07;;
50086;SDS011;35967;50.718;7.050;2022-10-18T22:18:11;23.67;;;11.53;;
50086;SDS011;35967;50.718;7.050;2022-10-18T22:28:15;24.23;;;11.07;;
50086;SDS011;35967;50.718;7.050;2022-10-18T22:38:18;30.93;;;10.93;;
50086;SDS011;35967;50.718;7.050;2022-10-18T22:48:23;24.67;;;10.40;;
50086;SDS011;35967;50.718;7.050;2022-10-18T22:58:26;22.47;;;10.63;;
50086;SDS011;35967;50.718;7.050;2022-10-18T23:08:30;31.37;;;10.97;;
50086;SDS011;35967;50.718;7.050;2022-10-18T23:18:34;24.63;;;10.97;;
50086;SDS011;35967;50.718;7.050;2022-10-18T23:28:39;25.27;;;11.57;;
50086;SDS011;35967;50.718;7.050;2022-10-18T23:38:44;23.93;;;10.77;;
50086;SDS011;35967;50.718;7.050;2022-10-18T23:48:48;21.87;;;10.60;;
50086;SDS011;35967;50.718;7.050;2022-10-18T23:58:51;25.03;;;9.70;;
